Time;durP1;ratioP1;P1;durP2;ratioP2;P2;SDS_P1;SDS_P2;PMS_P1;PMS_P2;Temp;Humidity;BMP_temperature;BMP_pressure;BME280_temperature;BME280_humidity;BME280_pressure;Samples;Min_cycle;Max_cycle;Signal;HPM_P1;HPM_P2
2022/08/31 05:17:30;;;;;;;;;;;25.30;99.90;;;;;;5365680;22;20367;-82
2022/08/31 05:19:57;;;;;;;;;;;25.30;99.90;;;;;;5042418;28;20287;-84
2022/08/31 05:22:24;;;;;;;;;;;25.30;99.90;;;;;;5036805;28;20012;-84
2022/08/31 05:24:50;;;;;;;;;;;25.30;99.90;;;;;;5036541;28;19971;-84
2022/08/31 05:27:17;;;;;;;;;;;25.30;99.90;;;;;;5038706;28;19921;-84
2022/08/31 05:29:44;;;;;;;;;;;25.40;99.90;;;;;;5073000;23;19967;-82
2022/08/31 05:32:10;;;;;;;;;;;25.30;99.90;;;;;;5058105;28;19968;-82
2022/08/31 05:34:39;;;;;;;;;;;25.40;99.90;;;;;;5057714;28;20418;-82
2022/08/31 05:37:05;;;;;;;;;;;25.40;99.90;;;;;;5058659;28;20312;-81
2022/08/31 05:39:32;;;;;;;;;;;25.40;99.90;;;;;;5059458;28;19924;-81
2022/08/31 05:41:59;;;;;;;;;;;25.40;99.90;;;;;;5058851;28;19959;-82
2022/08/31 05:44:26;;;;;;;;;;;25.40;99.90;;;;;;5058618;28;20369;-82
2022/08/31 05:46:52;;;;;;;;;;;25.40;99.90;;;;;;5058047;28;20007;-81
2022/08/31 05:49:19;;;;;;;;;;;25.40;99.90;;;;;;5057546;28;19921;-81
2022/08/31 05:51:47;;;;;;;;;;;25.40;99.90;;;;;;5057896;28;19920;-81
2022/08/31 05:54:15;;;;;;;;;;;25.40;99.90;;;;;;5057922;28;19924;-81
2022/08/31 05:56:42;;;;;;;;;;;25.40;99.90;;;;;;5057921;28;19921;-82
2022/08/31 05:59:08;;;;;;;;;;;25.40;99.90;;;;;;5059809;28;19927;-82
2022/08/31 06:01:37;;;;;;;;;;;25.40;99.90;;;;;;5058019;28;19927;-82
2022/08/31 06:04:04;;;;;;;;;;;25.40;99.90;;;;;;5057788;28;19925;-82
2022/08/31 06:06:31;;;;;;;;;;;25.40;99.90;;;;;;5057271;28;19921;-81
2022/08/31 06:08:59;;;;;;;;;;;25.40;99.90;;;;;;5059328;28;19968;-82
2022/08/31 06:11:27;;;;;;;;;;;25.40;99.90;;;;;;5058174;28;19921;-82
2022/08/31 06:13:55;;;;;;;;;;;25.40;99.90;;;;;;5057873;28;20011;-82
2022/08/31 06:16:22;;;;;;;;;;;25.40;99.90;;;;;;5057027;28;20011;-82
2022/08/31 06:18:49;;;;;;;;;;;25.40;99.90;;;;;;5057400;28;19920;-81
2022/08/31 06:21:17;;;;;;;;;;;25.40;99.90;;;;;;5056648;28;19921;-81
2022/08/31 06:23:44;;;;;;;;;;;25.40;99.90;;;;;;5056669;28;20011;-83
2022/08/31 06:26:14;;;;;;;;;;;25.40;99.90;;;;;;5056312;28;19921;-78
2022/08/31 06:28:42;;;;;;;;;;;25.40;99.90;;;;;;5056970;28;19920;-80
2022/08/31 06:31:14;;;;;;;;;;;25.30;99.90;;;;;;5056811;28;20454;-81
2022/08/31 06:33:42;;;;;;;;;;;25.30;99.90;;;;;;5056606;28;19983;-81
2022/08/31 06:36:09;;;;;;;;;;;25.30;99.90;;;;;;5056165;28;19927;-81
2022/08/31 06:38:36;;;;;;;;;;;25.30;99.90;;;;;;5056266;28;19927;-81
2022/08/31 06:41:10;;;;;;;;;;;25.30;99.90;;;;;;5056163;28;19995;-81
2022/08/31 06:43:38;;;;;;;;;;;25.30;99.90;;;;;;5055919;28;20003;-80
2022/08/31 06:46:05;;;;;;;;;;;25.30;99.90;;;;;;5055914;28;19927;-80
2022/08/31 06:48:31;;;;;;;;;;;25.30;99.90;;;;;;5056209;28;19927;-80
2022/08/31 06:50:58;;;;;;;;;;;25.30;99.90;;;;;;5056194;28;19927;-81
2022/08/31 06:53:25;;;;;;;;;;;25.30;99.90;;;;;;5056380;28;19927;-78
2022/08/31 06:55:52;;;;;;;;;;;25.30;99.90;;;;;;5055087;28;19928;-78
2022/08/31 06:58:18;;;;;;;;;;;25.30;99.90;;;;;;5057691;28;19971;-80
2022/08/31 07:00:47;;;;;;;;;;;25.30;99.90;;;;;;5060136;28;20443;-81
2022/08/31 07:03:23;;;;;;;;;;;25.30;99.90;;;;;;5062474;28;19921;-82
2022/08/31 07:05:50;;;;;;;;;;;25.30;99.90;;;;;;5062128;28;20028;-81
2022/08/31 07:08:17;;;;;;;;;;;25.20;99.90;;;;;;5060794;28;19921;-81
2022/08/31 07:10:44;;;;;;;;;;;25.10;99.90;;;;;;5060668;28;19972;-81
2022/08/31 07:13:10;;;;;;;;;;;25.10;99.90;;;;;;5059214;28;19926;-81
2022/08/31 07:15:39;;;;;;;;;;;25.00;99.90;;;;;;5061107;28;19924;-81
2022/08/31 07:18:08;;;;;;;;;;;25.00;99.90;;;;;;5060860;28;20007;-83
2022/08/31 07:20:34;;;;;;;;;;;25.00;99.90;;;;;;5060276;28;19924;-84
2022/08/31 07:23:01;;;;;;;;;;;24.90;99.90;;;;;;5061126;28;19920;-83
2022/08/31 07:25:28;;;;;;;;;;;24.90;99.90;;;;;;5064575;28;19921;-82
2022/08/31 07:27:58;;;;;;;;;;;24.90;99.90;;;;;;5066561;28;19921;-82
2022/08/31 07:30:25;;;;;;;;;;;24.90;99.90;;;;;;5065338;28;19931;-83
2022/08/31 07:32:52;;;;;;;;;;;24.90;99.90;;;;;;5066782;28;19956;-82
2022/08/31 07:35:21;;;;;;;;;;;24.90;99.40;;;;;;5063510;28;19927;-84
2022/08/31 07:43:23;;;;;;;;;;;24.90;98.30;;;;;;5061944;28;19923;-85
2022/08/31 07:45:50;;;;;;;;;;;24.90;98.00;;;;;;5062410;28;19964;-85
2022/08/31 07:48:18;;;;;;;;;;;24.80;97.60;;;;;;5061721;28;19921;-84
2022/08/31 07:50:47;;;;;;;;;;;24.80;97.40;;;;;;5061795;28;19979;-85
2022/08/31 07:53:14;;;;;;;;;;;24.80;97.10;;;;;;5062222;28;19921;-84
2022/08/31 07:55:44;;;;;;;;;;;24.80;96.80;;;;;;5063517;28;19921;-87
2022/08/31 07:58:14;;;;;;;;;;;24.80;96.50;;;;;;5059868;28;19935;-87
2022/08/31 08:00:42;;;;;;;;;;;24.80;96.30;;;;;;5059757;28;20011;-88
2022/08/31 08:03:10;;;;;;;;;;;24.80;96.00;;;;;;5059143;28;19928;-86
2022/08/31 08:05:40;;;;;;;;;;;24.80;95.70;;;;;;5057510;28;19920;-86
2022/08/31 08:08:11;;;;;;;;;;;24.80;95.40;;;;;;5058298;28;20330;-86
2022/08/31 08:10:47;;;;;;;;;;;24.80;95.20;;;;;;5059975;28;19960;-84
2022/08/31 08:13:15;;;;;;;;;;;24.80;95.10;;;;;;5063158;28;19921;-84
2022/08/31 08:15:42;;;;;;;;;;;24.80;94.70;;;;;;5063972;28;20011;-83
2022/08/31 08:18:12;;;;;;;;;;;24.80;94.50;;;;;;5063355;28;19971;-84
2022/08/31 08:20:38;;;;;;;;;;;24.80;94.30;;;;;;5063641;28;20390;-83
2022/08/31 08:23:10;;;;;;;;;;;24.80;94.10;;;;;;5063580;28;19931;-84
2022/08/31 08:25:38;;;;;;;;;;;24.80;93.80;;;;;;5063744;28;19971;-83
2022/08/31 08:28:05;;;;;;;;;;;24.80;93.60;;;;;;5063786;28;20003;-83
2022/08/31 08:30:31;;;;;;;;;;;24.80;93.40;;;;;;5062650;28;19960;-83
2022/08/31 08:33:00;;;;;;;;;;;24.80;93.20;;;;;;5063013;28;20011;-83
2022/08/31 08:35:31;;;;;;;;;;;24.80;93.10;;;;;;5062616;28;19987;-84
2022/08/31 08:37:57;;;;;;;;;;;24.80;92.80;;;;;;5062870;28;19964;-83
2022/08/31 08:40:29;;;;;;;;;;;24.80;92.70;;;;;;5062724;28;19958;-84
2022/08/31 08:42:58;;;;;;;;;;;24.70;92.60;;;;;;5063232;28;19921;-84
2022/08/31 08:45:25;;;;;;;;;;;24.80;92.50;;;;;;5061361;28;19925;-83
2022/08/31 08:47:55;;;;;;;;;;;24.70;92.20;;;;;;5062028;28;20015;-83
2022/08/31 08:50:25;;;;;;;;;;;24.70;92.10;;;;;;5060143;28;20368;-83
2022/08/31 08:52:52;;;;;;;;;;;24.70;92.00;;;;;;5061842;28;19927;-83
2022/08/31 08:55:20;;;;;;;;;;;24.70;91.80;;;;;;5062082;28;19924;-83
2022/08/31 08:57:51;;;;;;;;;;;24.80;91.70;;;;;;5062653;28;19928;-81
2022/08/31 09:00:23;;;;;;;;;;;24.70;91.60;;;;;;5061752;28;19921;-82
2022/08/31 09:02:54;;;;;;;;;;;24.80;91.50;;;;;;5061528;28;19920;-81
2022/08/31 09:05:33;;;;;;;;;;;24.80;91.30;;;;;;5061451;28;19927;-81
2022/08/31 09:08:10;;;;;;;;;;;24.70;91.00;;;;;;5061026;28;19976;-81
2022/08/31 09:10:41;;;;;;;;;;;24.70;90.70;;;;;;5062849;28;20257;-83
2022/08/31 09:13:13;;;;;;;;;;;24.70;90.50;;;;;;5063687;28;19921;-81
2022/08/31 09:15:48;;;;;;;;;;;24.70;90.40;;;;;;5062759;28;19979;-82
2022/08/31 09:18:23;;;;;;;;;;;24.70;90.30;;;;;;5061885;28;19925;-82
2022/08/31 09:21:19;;;;;;;;;;;24.70;90.20;;;;;;5062583;28;19960;-82
2022/08/31 09:23:48;;;;;;;;;;;24.70;90.10;;;;;;5053071;28;19992;-82
2022/08/31 09:26:15;;;;;;;;;;;24.70;90.10;;;;;;5062683;28;19925;-82
2022/08/31 09:28:47;;;;;;;;;;;24.70;90.40;;;;;;5062022;28;19975;-82
2022/08/31 09:31:31;;;;;;;;;;;24.70;90.10;;;;;;5061957;28;19925;-82
2022/08/31 09:33:58;;;;;;;;;;;24.70;90.10;;;;;;5062917;28;19920;-82
2022/08/31 09:36:32;;;;;;;;;;;24.70;90.10;;;;;;5062825;28;20011;-82
2022/08/31 09:39:12;;;;;;;;;;;24.70;90.00;;;;;;5062942;28;19927;-82
2022/08/31 09:41:40;;;;;;;;;;;24.70;89.90;;;;;;5067389;28;19960;-82
2022/08/31 09:44:23;;;;;;;;;;;24.70;89.70;;;;;;5068823;28;20011;-82
2022/08/31 09:46:53;;;;;;;;;;;24.80;89.70;;;;;;5067113;28;19975;-82
2022/08/31 09:49:20;;;;;;;;;;;24.70;89.50;;;;;;5070115;28;19931;-82
2022/08/31 09:51:48;;;;;;;;;;;24.80;89.40;;;;;;5070488;28;19989;-82
2022/08/31 09:57:05;;;;;;;;;;;24.80;89.20;;;;;;5070090;28;20287;-82
2022/08/31 09:59:36;;;;;;;;;;;24.80;89.10;;;;;;5070774;28;19948;-82
2022/08/31 10:02:06;;;;;;;;;;;24.80;89.00;;;;;;5068718;28;19967;-82
2022/08/31 10:04:36;;;;;;;;;;;24.80;88.90;;;;;;5065965;28;19967;-82
2022/08/31 10:07:10;;;;;;;;;;;24.80;89.60;;;;;;5062481;28;19967;-82
2022/08/31 10:09:40;;;;;;;;;;;24.80;88.70;;;;;;5061831;28;19921;-82
2022/08/31 10:12:08;;;;;;;;;;;24.80;88.60;;;;;;5062138;28;19927;-82
2022/08/31 10:14:40;;;;;;;;;;;24.80;88.50;;;;;;5061607;28;20447;-82
2022/08/31 10:17:11;;;;;;;;;;;24.80;88.40;;;;;;5062763;28;19967;-82
2022/08/31 10:19:45;;;;;;;;;;;24.80;88.40;;;;;;5062137;28;20316;-82
2022/08/31 10:22:24;;;;;;;;;;;24.80;88.20;;;;;;5060321;28;20394;-82
2022/08/31 10:25:03;;;;;;;;;;;24.80;88.10;;;;;;5057720;28;19920;-82
2022/08/31 10:27:37;;;;;;;;;;;24.80;88.10;;;;;;5058623;28;20383;-82
2022/08/31 10:30:06;;;;;;;;;;;24.80;88.00;;;;;;5058116;28;20402;-82
2022/08/31 10:32:40;;;;;;;;;;;24.80;88.00;;;;;;5058392;28;19920;-82
2022/08/31 10:35:09;;;;;;;;;;;24.80;87.90;;;;;;5057029;28;20007;-82
2022/08/31 10:37:54;;;;;;;;;;;24.90;87.90;;;;;;5056651;28;19925;-82
2022/08/31 10:40:24;;;;;;;;;;;24.80;87.80;;;;;;5049359;28;19921;-82
2022/08/31 10:42:58;;;;;;;;;;;24.80;87.70;;;;;;5056091;28;20023;-82
2022/08/31 10:45:27;;;;;;;;;;;24.90;87.80;;;;;;5056165;28;19960;-82
2022/08/31 10:47:56;;;;;;;;;;;24.90;87.70;;;;;;5055952;28;19936;-82
2022/08/31 10:50:26;;;;;;;;;;;24.90;87.60;;;;;;5055992;28;19927;-82
2022/08/31 10:52:57;;;;;;;;;;;24.90;87.60;;;;;;5056188;28;19921;-82
2022/08/31 10:55:31;;;;;;;;;;;24.90;87.50;;;;;;5056039;28;20439;-82
2022/08/31 10:58:03;;;;;;;;;;;24.90;87.50;;;;;;5056176;28;19920;-82
2022/08/31 11:00:46;;;;;;;;;;;24.90;87.50;;;;;;5055676;28;19987;-82
2022/08/31 11:03:18;;;;;;;;;;;24.90;87.40;;;;;;5056877;28;20007;-82
2022/08/31 11:05:47;;;;;;;;;;;24.90;87.30;;;;;;5057077;28;20333;-82
2022/08/31 11:08:30;;;;;;;;;;;24.90;87.30;;;;;;5056215;28;19970;-82
2022/08/31 11:10:58;;;;;;;;;;;24.90;87.30;;;;;;5055870;28;19921;-82
2022/08/31 11:13:37;;;;;;;;;;;24.90;87.20;;;;;;5056025;28;19983;-82
2022/08/31 11:16:20;;;;;;;;;;;24.90;87.20;;;;;;5056239;28;19921;-82
2022/08/31 11:18:56;;;;;;;;;;;24.90;87.10;;;;;;5055822;28;19984;-82
2022/08/31 11:21:35;;;;;;;;;;;24.90;87.10;;;;;;5055873;28;19927;-82
2022/08/31 11:24:11;;;;;;;;;;;24.90;87.00;;;;;;5055450;28;20295;-82
2022/08/31 11:26:40;;;;;;;;;;;24.90;87.00;;;;;;5055865;28;19920;-82
2022/08/31 11:29:13;;;;;;;;;;;24.90;86.90;;;;;;5055873;28;19927;-82
2022/08/31 11:31:40;;;;;;;;;;;24.90;86.90;;;;;;5055782;28;19927;-82
2022/08/31 11:34:12;;;;;;;;;;;24.90;86.90;;;;;;5056335;28;19984;-82
2022/08/31 11:36:52;;;;;;;;;;;24.90;86.90;;;;;;5055554;28;19963;-82
2022/08/31 11:39:36;;;;;;;;;;;24.90;86.90;;;;;;5055482;28;20264;-82
2022/08/31 11:42:13;;;;;;;;;;;24.90;86.80;;;;;;5055381;28;20015;-82
2022/08/31 11:45:00;;;;;;;;;;;24.90;86.80;;;;;;5055842;28;20343;-82
2022/08/31 11:47:34;;;;;;;;;;;25.00;86.90;;;;;;5054917;28;20015;-82
2022/08/31 11:50:04;;;;;;;;;;;25.00;86.90;;;;;;5054667;28;19968;-82
2022/08/31 11:52:39;;;;;;;;;;;25.00;86.90;;;;;;5055542;28;19921;-82
2022/08/31 11:55:24;;;;;;;;;;;25.00;86.80;;;;;;5055114;28;19960;-82
2022/08/31 11:58:10;;;;;;;;;;;25.00;86.80;;;;;;5055290;28;19983;-82
2022/08/31 12:00:44;;;;;;;;;;;25.00;86.80;;;;;;5055334;28;19932;-82
2022/08/31 12:03:30;;;;;;;;;;;25.00;86.70;;;;;;5055154;28;19921;-81
2022/08/31 12:05:58;;;;;;;;;;;25.00;86.70;;;;;;5054682;28;19931;-81
2022/08/31 12:08:26;;;;;;;;;;;25.00;86.70;;;;;;5055139;28;19920;-81
2022/08/31 12:10:57;;;;;;;;;;;25.00;86.60;;;;;;5054908;28;19927;-82
2022/08/31 12:13:48;;;;;;;;;;;25.00;86.60;;;;;;5057599;28;20010;-80
2022/08/31 12:16:30;;;;;;;;;;;25.00;86.60;;;;;;5057810;28;19921;-80
2022/08/31 12:19:05;;;;;;;;;;;25.00;86.50;;;;;;5056972;28;19959;-79
2022/08/31 12:24:30;;;;;;;;;;;25.00;86.40;;;;;;5057413;28;20445;-79
2022/08/31 12:27:02;;;;;;;;;;;25.00;86.40;;;;;;5056938;28;19925;-79
2022/08/31 12:29:29;;;;;;;;;;;25.00;86.40;;;;;;5055754;28;20031;-79
2022/08/31 12:32:11;;;;;;;;;;;25.00;86.40;;;;;;5056523;28;20078;-79
2022/08/31 12:34:38;;;;;;;;;;;25.00;86.30;;;;;;5048238;28;19955;-79
2022/08/31 12:37:21;;;;;;;;;;;25.00;86.30;;;;;;5057373;28;19927;-79
2022/08/31 12:39:48;;;;;;;;;;;25.00;86.30;;;;;;5057620;28;19987;-79
2022/08/31 12:42:14;;;;;;;;;;;25.00;86.30;;;;;;5057010;28;20403;-79
2022/08/31 12:44:44;;;;;;;;;;;25.00;86.20;;;;;;5057409;28;19992;-79
2022/08/31 12:47:18;;;;;;;;;;;25.00;86.20;;;;;;5057366;28;19921;-79
2022/08/31 12:49:51;;;;;;;;;;;25.00;86.10;;;;;;5058152;28;19920;-79
2022/08/31 12:52:27;;;;;;;;;;;25.10;86.30;;;;;;5057954;28;19920;-79
2022/08/31 12:55:12;;;;;;;;;;;25.00;86.10;;;;;;5057939;28;19920;-79
2022/08/31 12:57:57;;;;;;;;;;;25.00;86.10;;;;;;5057909;28;19921;-79
2022/08/31 13:00:25;;;;;;;;;;;25.10;86.20;;;;;;5054744;28;19960;-79
2022/08/31 13:02:53;;;;;;;;;;;25.10;86.20;;;;;;5061856;28;20023;-79
2022/08/31 13:05:22;;;;;;;;;;;25.10;86.20;;;;;;5061434;28;19921;-79
2022/08/31 13:07:50;;;;;;;;;;;25.10;86.20;;;;;;5060815;28;20380;-79
2022/08/31 13:10:24;;;;;;;;;;;25.10;86.20;;;;;;5061469;28;20350;-79
2022/08/31 13:12:52;;;;;;;;;;;25.10;86.20;;;;;;5061487;28;20021;-79
2022/08/31 13:15:23;;;;;;;;;;;25.10;86.20;;;;;;5061503;28;19987;-79
2022/08/31 13:17:50;;;;;;;;;;;25.10;86.20;;;;;;5061187;28;19970;-79
2022/08/31 13:20:18;;;;;;;;;;;25.10;86.30;;;;;;5061478;28;20364;-79
2022/08/31 13:22:47;;;;;;;;;;;25.10;86.30;;;;;;5068179;28;19921;-81
2022/08/31 13:25:30;;;;;;;;;;;25.10;86.30;;;;;;5066622;28;19920;-81
2022/08/31 13:27:57;;;;;;;;;;;25.10;86.30;;;;;;5061988;28;19925;-81
2022/08/31 13:30:24;;;;;;;;;;;25.10;86.30;;;;;;5063349;28;20000;-81
2022/08/31 13:32:53;;;;;;;;;;;25.10;86.30;;;;;;5062665;28;19920;-81
2022/08/31 13:35:21;;;;;;;;;;;25.10;86.30;;;;;;5064823;28;19971;-81
2022/08/31 13:37:51;;;;;;;;;;;25.10;86.30;;;;;;5066272;28;19925;-81
2022/08/31 13:40:23;;;;;;;;;;;25.10;86.30;;;;;;5064862;28;19931;-81
2022/08/31 13:42:52;;;;;;;;;;;25.10;86.30;;;;;;5064362;28;19921;-80
2022/08/31 13:45:25;;;;;;;;;;;25.10;86.30;;;;;;5064535;28;19972;-80
2022/08/31 13:47:54;;;;;;;;;;;25.10;86.30;;;;;;5064713;28;19920;-82
2022/08/31 13:50:22;;;;;;;;;;;25.10;86.30;;;;;;5065031;28;19964;-82
2022/08/31 13:52:50;;;;;;;;;;;25.10;86.30;;;;;;5064795;28;20372;-82
2022/08/31 13:55:30;;;;;;;;;;;25.10;86.30;;;;;;5064358;28;20011;-82
2022/08/31 13:57:59;;;;;;;;;;;25.10;86.20;;;;;;5064639;28;20335;-82
2022/08/31 14:00:32;;;;;;;;;;;25.10;86.20;;;;;;5063686;28;19928;-82
2022/08/31 14:03:28;;;;;;;;;;;25.10;86.20;;;;;;5060537;28;19921;-83
2022/08/31 14:05:57;;;;;;;;;;;25.10;86.10;;;;;;5060402;28;20000;-84
2022/08/31 14:08:27;;;;;;;;;;;25.10;86.10;;;;;;5056983;28;20361;-84
2022/08/31 14:10:55;;;;;;;;;;;25.10;86.10;;;;;;5056280;28;20455;-84
2022/08/31 14:13:26;;;;;;;;;;;25.10;86.00;;;;;;5056171;28;19921;-84
2022/08/31 14:15:55;;;;;;;;;;;25.10;86.00;;;;;;5056549;28;20335;-84
2022/08/31 14:18:25;;;;;;;;;;;25.10;86.00;;;;;;5055493;28;19921;-84
2022/08/31 14:21:22;;;;;;;;;;;25.10;86.00;;;;;;5055753;28;20480;-85
2022/08/31 14:23:50;;;;;;;;;;;25.10;86.00;;;;;;5013750;28;19922;-85
2022/08/31 14:26:20;;;;;;;;;;;25.10;86.00;;;;;;5045595;28;19921;-85
2022/08/31 14:28:48;;;;;;;;;;;25.10;86.00;;;;;;5055336;28;19927;-85
2022/08/31 14:31:21;;;;;;;;;;;25.10;85.90;;;;;;5055430;28;19920;-85
2022/08/31 14:33:50;;;;;;;;;;;25.10;85.90;;;;;;5055855;28;19931;-84
2022/08/31 14:36:18;;;;;;;;;;;25.10;85.90;;;;;;5055548;28;19921;-84
2022/08/31 14:38:46;;;;;;;;;;;25.10;85.90;;;;;;5055668;28;20019;-84
2022/08/31 14:41:13;;;;;;;;;;;25.10;85.80;;;;;;5055931;28;20019;-84
2022/08/31 14:43:42;;;;;;;;;;;25.10;85.80;;;;;;5055689;28;20011;-84
2022/08/31 14:46:09;;;;;;;;;;;25.10;85.80;;;;;;5055445;28;20455;-84
2022/08/31 14:48:39;;;;;;;;;;;25.10;85.80;;;;;;5055235;28;20442;-84
2022/08/31 14:51:07;;;;;;;;;;;25.10;85.80;;;;;;5055689;28;19964;-84
2022/08/31 14:53:36;;;;;;;;;;;25.10;85.80;;;;;;5055298;28;19921;-84
2022/08/31 14:56:05;;;;;;;;;;;25.10;85.80;;;;;;5055729;28;19967;-84
2022/08/31 14:58:40;;;;;;;;;;;25.10;85.80;;;;;;5055705;28;19921;-84
2022/08/31 15:01:09;;;;;;;;;;;25.10;85.70;;;;;;5055450;28;20023;-84
2022/08/31 15:03:39;;;;;;;;;;;25.10;85.70;;;;;;5055237;28;19982;-84
2022/08/31 15:06:07;;;;;;;;;;;25.10;85.70;;;;;;5055421;28;19920;-84
2022/08/31 15:08:34;;;;;;;;;;;25.10;85.70;;;;;;5055035;28;19935;-84
2022/08/31 15:11:02;;;;;;;;;;;25.10;85.70;;;;;;5055470;28;20352;-84
2022/08/31 15:13:32;;;;;;;;;;;25.10;85.60;;;;;;5055277;28;19921;-84
2022/08/31 15:16:03;;;;;;;;;;;25.10;85.60;;;;;;5055258;28;20360;-84
2022/08/31 15:18:32;;;;;;;;;;;25.10;85.60;;;;;;5055391;28;19927;-84
2022/08/31 15:21:01;;;;;;;;;;;25.10;85.60;;;;;;5054806;28;19971;-84
2022/08/31 15:23:27;;;;;;;;;;;25.10;85.60;;;;;;5055375;28;19928;-84
2022/08/31 15:26:02;;;;;;;;;;;25.10;85.50;;;;;;5055754;28;20346;-84
2022/08/31 15:28:30;;;;;;;;;;;25.10;85.50;;;;;;5058313;28;19928;-84
2022/08/31 15:30:58;;;;;;;;;;;25.10;85.50;;;;;;5064261;28;19927;-84
2022/08/31 15:33:28;;;;;;;;;;;25.10;85.40;;;;;;5061574;28;19928;-82
2022/08/31 15:36:06;;;;;;;;;;;25.10;85.40;;;;;;5061679;28;19971;-82
2022/08/31 15:38:33;;;;;;;;;;;25.10;85.40;;;;;;5061802;28;19920;-83
2022/08/31 15:41:00;;;;;;;;;;;25.10;85.40;;;;;;5059813;28;19999;-84
2022/08/31 15:43:26;;;;;;;;;;;25.10;85.40;;;;;;5060037;28;20011;-84
2022/08/31 15:45:53;;;;;;;;;;;25.10;85.30;;;;;;5059097;28;19964;-84
2022/08/31 15:51:11;;;;;;;;;;;25.10;85.30;;;;;;5057416;28;19927;-80
2022/08/31 15:53:41;;;;;;;;;;;25.10;85.30;;;;;;5057575;28;19924;-79
2022/08/31 15:56:08;;;;;;;;;;;25.10;85.30;;;;;;5057676;28;19967;-80
2022/08/31 15:58:37;;;;;;;;;;;25.10;85.10;;;;;;5057957;28;19982;-79
2022/08/31 16:01:04;;;;;;;;;;;25.10;85.10;;;;;;5059868;28;19932;-80
2022/08/31 16:03:31;;;;;;;;;;;25.00;85.00;;;;;;5059804;28;19979;-80
2022/08/31 16:05:59;;;;;;;;;;;25.00;84.80;;;;;;5059282;28;20190;-81
2022/08/31 16:08:28;;;;;;;;;;;25.00;84.80;;;;;;5060079;28;20019;-81
2022/08/31 16:10:55;;;;;;;;;;;25.00;84.80;;;;;;5058945;28;20018;-81
2022/08/31 16:13:21;;;;;;;;;;;25.00;84.80;;;;;;5061557;28;19921;-81
2022/08/31 16:15:49;;;;;;;;;;;25.00;84.80;;;;;;5060602;28;20017;-81
2022/08/31 16:18:17;;;;;;;;;;;25.00;84.80;;;;;;5059047;28;19947;-79
2022/08/31 16:20:46;;;;;;;;;;;25.00;84.80;;;;;;5058696;28;20011;-80
2022/08/31 16:23:13;;;;;;;;;;;25.00;84.90;;;;;;5058947;28;19927;-80
2022/08/31 16:25:42;;;;;;;;;;;25.00;84.90;;;;;;5058846;28;19920;-80
2022/08/31 16:28:09;;;;;;;;;;;25.00;84.80;;;;;;5058181;28;20333;-80
2022/08/31 16:30:36;;;;;;;;;;;25.00;84.80;;;;;;5057878;28;19921;-80
2022/08/31 16:33:02;;;;;;;;;;;25.00;84.90;;;;;;5058924;28;20015;-80
2022/08/31 16:35:29;;;;;;;;;;;25.00;84.80;;;;;;5062842;28;19967;-82
2022/08/31 16:37:56;;;;;;;;;;;25.00;85.10;;;;;;5063413;28;19973;-83
2022/08/31 16:40:24;;;;;;;;;;;25.10;85.40;;;;;;5063458;28;19921;-82
2022/08/31 16:42:52;;;;;;;;;;;25.10;85.50;;;;;;5062808;28;19921;-82
2022/08/31 16:45:19;;;;;;;;;;;25.10;85.60;;;;;;5061049;28;20011;-82
2022/08/31 16:47:46;;;;;;;;;;;25.10;85.80;;;;;;5061338;28;20015;-82
2022/08/31 16:50:11;;;;;;;;;;;25.10;85.80;;;;;;5062079;28;19956;-81
2022/08/31 16:52:38;;;;;;;;;;;25.10;85.90;;;;;;5061769;28;19917;-81
2022/08/31 16:55:05;;;;;;;;;;;25.10;86.00;;;;;;5064355;28;19960;-81
2022/08/31 16:57:33;;;;;;;;;;;25.10;86.10;;;;;;5065013;28;19928;-81
2022/08/31 17:00:03;;;;;;;;;;;25.00;86.00;;;;;;5065646;28;19924;-83
2022/08/31 17:02:31;;;;;;;;;;;25.10;86.20;;;;;;5068414;28;19982;-83
2022/08/31 17:05:03;;;;;;;;;;;25.00;86.10;;;;;;5067224;28;20003;-81
2022/08/31 17:07:29;;;;;;;;;;;25.00;86.10;;;;;;5067320;28;19925;-81
2022/08/31 17:09:57;;;;;;;;;;;25.00;86.00;;;;;;5065668;28;19952;-81
2022/08/31 17:12:26;;;;;;;;;;;25.00;86.10;;;;;;5065158;28;19927;-81
2022/08/31 17:14:52;;;;;;;;;;;25.00;86.20;;;;;;5065312;28;19920;-81
2022/08/31 17:17:22;;;;;;;;;;;25.00;86.30;;;;;;5066384;28;19921;-80
2022/08/31 17:19:48;;;;;;;;;;;25.00;86.40;;;;;;5067979;28;20020;-80
2022/08/31 17:22:16;;;;;;;;;;;25.00;86.50;;;;;;5068027;28;20004;-80
2022/08/31 17:24:43;;;;;;;;;;;25.00;86.80;;;;;;5067365;28;19925;-82
2022/08/31 17:27:12;;;;;;;;;;;25.00;86.90;;;;;;5069525;28;20366;-82
2022/08/31 17:29:40;;;;;;;;;;;25.00;87.10;;;;;;5068830;28;19927;-83
2022/08/31 17:32:07;;;;;;;;;;;25.10;87.40;;;;;;5064444;28;20036;-81
2022/08/31 17:34:36;;;;;;;;;;;25.10;87.50;;;;;;5062580;28;20023;-81
2022/08/31 17:37:05;;;;;;;;;;;25.00;87.70;;;;;;5062121;28;20363;-80
2022/08/31 17:39:32;;;;;;;;;;;25.00;87.80;;;;;;5062804;28;20439;-80
2022/08/31 17:41:58;;;;;;;;;;;25.00;88.70;;;;;;5062719;28;20015;-80
2022/08/31 17:44:29;;;;;;;;;;;25.00;88.10;;;;;;5061514;28;20406;-80
2022/08/31 17:46:57;;;;;;;;;;;25.00;88.20;;;;;;5061723;28;19928;-80
2022/08/31 17:49:24;;;;;;;;;;;25.00;88.20;;;;;;5062740;28;19931;-80
2022/08/31 17:51:53;;;;;;;;;;;25.00;88.30;;;;;;5062599;28;20011;-80
2022/08/31 17:54:22;;;;;;;;;;;24.90;88.30;;;;;;5061871;28;19924;-80
2022/08/31 17:56:50;;;;;;;;;;;25.00;88.40;;;;;;5061902;28;19924;-80
2022/08/31 17:59:18;;;;;;;;;;;25.00;88.40;;;;;;5061175;28;19969;-80
2022/08/31 18:01:46;;;;;;;;;;;24.90;88.50;;;;;;5062012;28;20339;-80
2022/08/31 18:04:13;;;;;;;;;;;24.90;88.60;;;;;;5061398;28;19921;-80
2022/08/31 18:06:43;;;;;;;;;;;24.90;88.60;;;;;;5065768;28;19980;-81
2022/08/31 18:09:13;;;;;;;;;;;24.90;88.80;;;;;;5066626;28;19921;-82
2022/08/31 18:11:44;;;;;;;;;;;24.90;88.90;;;;;;5063421;28;19967;-81
2022/08/31 18:14:11;;;;;;;;;;;24.90;89.10;;;;;;5064460;28;19924;-81
2022/08/31 18:16:39;;;;;;;;;;;24.90;89.10;;;;;;5062602;28;20434;-81
2022/08/31 18:19:06;;;;;;;;;;;24.90;89.30;;;;;;5064601;28;20007;-81
2022/08/31 18:21:32;;;;;;;;;;;24.90;89.40;;;;;;5064534;28;20007;-81
2022/08/31 18:23:59;;;;;;;;;;;24.90;89.50;;;;;;5061050;28;20016;-81
2022/08/31 18:26:29;;;;;;;;;;;24.90;89.60;;;;;;5059775;28;19983;-81
2022/08/31 18:28:55;;;;;;;;;;;24.90;89.70;;;;;;5061992;28;19921;-81
2022/08/31 18:31:26;;;;;;;;;;;24.90;89.80;;;;;;5060619;28;20016;-81
2022/08/31 18:33:54;;;;;;;;;;;24.90;89.90;;;;;;5062560;28;19920;-81
2022/08/31 18:36:22;;;;;;;;;;;24.90;90.00;;;;;;5061280;28;19924;-81
2022/08/31 18:38:49;;;;;;;;;;;24.90;90.00;;;;;;5062862;28;19966;-81
2022/08/31 18:46:45;;;;;;;;;;;24.90;90.20;;;;;;5064240;28;19928;-82
2022/08/31 18:49:12;;;;;;;;;;;24.90;90.20;;;;;;5063913;28;19927;-81
2022/08/31 18:51:41;;;;;;;;;;;24.90;90.20;;;;;;5065078;28;19963;-81
2022/08/31 18:54:08;;;;;;;;;;;24.90;90.20;;;;;;5065827;28;19927;-82
2022/08/31 18:56:35;;;;;;;;;;;24.90;90.20;;;;;;5063682;28;19931;-81
2022/08/31 18:59:03;;;;;;;;;;;24.90;90.20;;;;;;5063334;28;20027;-81
2022/08/31 19:01:29;;;;;;;;;;;24.90;90.20;;;;;;5064211;28;20012;-82
2022/08/31 19:03:57;;;;;;;;;;;24.90;90.20;;;;;;5064170;28;19976;-82
2022/08/31 19:06:25;;;;;;;;;;;24.90;90.20;;;;;;5065018;28;19924;-82
2022/08/31 19:08:52;;;;;;;;;;;24.90;90.20;;;;;;5065121;28;20378;-81
2022/08/31 19:11:19;;;;;;;;;;;24.90;90.20;;;;;;5064544;28;19981;-81
2022/08/31 19:13:46;;;;;;;;;;;24.80;90.10;;;;;;5062552;28;19964;-81
2022/08/31 19:16:17;;;;;;;;;;;24.90;90.20;;;;;;5060216;28;20435;-81
2022/08/31 19:18:47;;;;;;;;;;;24.80;90.10;;;;;;5059679;28;19920;-81
2022/08/31 19:21:15;;;;;;;;;;;24.80;90.10;;;;;;5059139;28;19971;-81
2022/08/31 19:23:42;;;;;;;;;;;24.80;90.10;;;;;;5058646;28;19943;-81
2022/08/31 19:26:09;;;;;;;;;;;24.80;90.10;;;;;;5059462;28;19967;-81
2022/08/31 19:28:36;;;;;;;;;;;24.80;90.10;;;;;;5058912;28;20265;-81
2022/08/31 19:31:02;;;;;;;;;;;24.80;90.10;;;;;;5058925;28;20002;-81
2022/08/31 19:33:32;;;;;;;;;;;24.80;90.10;;;;;;5059090;28;19963;-81
2022/08/31 19:35:59;;;;;;;;;;;24.80;90.10;;;;;;5058548;28;19920;-81
2022/08/31 19:38:27;;;;;;;;;;;24.80;90.10;;;;;;5058104;28;19921;-81
2022/08/31 19:40:54;;;;;;;;;;;24.80;90.10;;;;;;5058202;28;19970;-81
2022/08/31 19:43:21;;;;;;;;;;;24.80;90.10;;;;;;5057861;28;20007;-81
2022/08/31 19:45:48;;;;;;;;;;;24.80;90.00;;;;;;5058519;28;19960;-81
2022/08/31 19:48:15;;;;;;;;;;;24.80;90.00;;;;;;5057380;28;20019;-82
2022/08/31 19:50:43;;;;;;;;;;;24.80;90.00;;;;;;5057996;28;19932;-82
2022/08/31 19:53:11;;;;;;;;;;;24.80;89.90;;;;;;5058981;28;19920;-82
2022/08/31 19:55:48;;;;;;;;;;;24.80;89.80;;;;;;5059425;28;19975;-81
2022/08/31 19:58:15;;;;;;;;;;;24.80;89.70;;;;;;5059895;28;20283;-81
2022/08/31 20:00:42;;;;;;;;;;;24.80;89.60;;;;;;5058666;28;19925;-81
2022/08/31 20:03:10;;;;;;;;;;;24.80;89.50;;;;;;5058889;28;20386;-81
2022/08/31 20:05:42;;;;;;;;;;;24.80;89.50;;;;;;5058840;28;20269;-81
2022/08/31 20:08:11;;;;;;;;;;;24.80;89.40;;;;;;5062178;28;19921;-81